West Washington - 300nm West Of Aberdeen, Wa (46005) Wave Buoy

8:50am - Tue 1st Dec 2015 All times are UTC.

  • Sig Wave height 10.5ft
  • Swell Direction
  • Peak Period 13s
  • Average Period 7s
  • Wind
    25mph, 31mph gusts
  • Sea Temp 56°f
  • Air Temp 57°f
  • Sea Pressure 1005.4mb

More Historic Weather Station data

Upgrade to MSW Pro to gain access to the past 30 days of data for over 8000 Wavebouys and Weather Stations around the globe.

Join Pro

Comparision Forecast

View Surf forecast
Tue 12/01 8:50am 10.5ft 13s 7s 25 31 mph 1005.4mb 56f 57f
7:50am 11ft 12s 7s 25 31 mph 1005.3mb 55f 57f
6:50am 10ft 13s 7s 27 31 mph 1005.6mb 55f 57f
5:50am 10.5ft 14s 8s 25 29 mph 1006.4mb 55f 56f
4:50am 11ft 13s 8s 25 29 mph 1007mb 55f 56f
3:50am 12ft 13s 8s 22 27 mph 1007.2mb 55f 56f
2:50am 13ft 13s 8s 18 22 mph 1007.4mb 55f 56f
1:50am 12.5ft 14s 8s 16 20 mph 1007.5mb 55f 56f
12:50am 14ft 14s 8s 16 20 mph 1007.4mb 55f 55f
Mon 11/30 11:50pm 13.5ft 9s 8s 22 29 mph 1007.3mb 55f 55f
10:50pm 14ft 14s 8s 25 31 mph 1006.7mb 56f 54f
9:50pm 13.5ft 15s 8s 25 29 mph 1005.8mb 56f 54f
8:50pm 12.5ft 15s 8s 27 34 mph 1004.9mb 56f 55f
7:50pm 13ft 14s 9s 18 27 mph 1004.3mb 56f 56f
6:50pm 14.5ft 14s 9s 18 22 mph 1003.7mb 56f 56f
5:50pm 14ft 10s 9s 22 31 mph 1002.6mb 56f 56f
4:50pm 14.5ft 11s 9s 20 25 mph 1001.1mb 56f 55f
3:50pm 14ft 15s 9s 13 18 mph 999.7mb 56f 56f
2:50pm 15.5ft 11s 9s 20 22 mph 999.8mb 56f 55f
1:50pm 15.5ft 10s 8s 20 25 mph 1000mb 55f 56f
12:50pm 15ft 10s 8s 22 29 mph 1000.4mb 56f 56f
11:50am 17ft 10s 9s 22 29 mph 1001.1mb 55f 55f
10:50am 15.5ft 11s 8s 20 29 mph 1002.2mb 55f 56f
9:50am 16.5ft 10s 8s 29 38 mph 1002.6mb 55f 56f
8:50am 17ft 10s 9s 27 38 mph 1003.6mb 55f 57f
7:50am 17.5ft 10s 9s 27 34 mph 1004.6mb 55f 57f
6:50am 15.5ft 10s 8s 29 36 mph 1005.1mb 55f 56f
5:50am 16.5ft 10s 8s 27 34 mph 1005.6mb 55f 56f
4:50am 16ft 9s 8s 31 38 mph 1006.1mb 55f 55f
3:50am 17ft 17s 8s 29 36 mph 1006.4mb 55f 55f
2:50am 14.5ft 16s 8s 31 38 mph 1006.9mb 56f 55f
1:50am 15.5ft 17s 8s 27 34 mph 1007.4mb 55f 56f
12:50am 15ft 17s 8s 29 38 mph 1007.8mb 55f 57f
Sun 11/29 11:50pm 14.5ft 17s 8s 27 36 mph 1008.2mb 55f 56f
10:50pm 14ft 16s 8s 25 31 mph 1008.5mb 55f 57f
9:50pm 12.5ft 15s 8s 22 27 mph 1009.6mb 55f 56f
8:50pm 13.5ft 16s 9s 22 29 mph 1010.5mb 55f 56f
7:50pm 14ft 16s 9s 25 31 mph 1011.2mb 55f 56f
6:50pm 14ft 17s 9s 25 31 mph 1012mb 55f 55f
5:50pm 15ft 16s 9s 27 31 mph 1012mb 55f 55f
4:50pm 14.5ft 16s 10s 25 31 mph 1012mb 55f 55f
3:50pm 11.5ft 17s 9s 25 29 mph 1012mb 55f 55f
2:50pm 15ft 17s 11s 20 27 mph 1012.3mb 55f 55f
1:50pm 11ft 17s 9s 20 29 mph 1012.5mb 55f 55f
12:50pm 14ft 17s 10s 20 25 mph 1013mb 55f 54f
11:50am 12.5ft 17s 10s 20 25 mph 1013.6mb 55f 54f
10:50am 10ft 19s 9s 20 27 mph 1013.8mb 55f 55f
9:50am 11ft 19s 10s 18 22 mph 1014.6mb 55f 55f
8:50am 9.5ft 19s 9s 20 25 mph 1014.8mb 55f 55f
7:50am 9ft 19s 9s 18 20 mph 1015.5mb 55f 55f
6:50am 8ft 19s 8s 16 20 mph 1016.1mb 55f 55f
5:50am 8ft 19s 8s 18 20 mph 1016.5mb 55f 55f
4:50am 7ft 19s 8s 18 20 mph 1017mb 55f 55f
3:50am 8ft 21s 8s 18 20 mph 1017.2mb 55f 54f
2:50am 7ft 19s 7s 18 20 mph 1017.1mb 55f 54f
1:50am 6.5ft 21s 7s 20 22 mph 1017mb 55f 54f
12:50am 6ft 21s 7s 18 20 mph 1017.3mb 55f 54f
Sat 11/28 11:50pm 6ft 21s 7s 16 20 mph 1017.6mb 55f 54f
10:50pm 6ft 10s 7s 13 18 mph 1018.1mb 55f 55f
9:50pm 6ft 10s 7s 13 16 mph 1018.8mb 55f 54f
8:50pm 5.5ft 10s 7s 11 16 mph 1019.6mb 55f 54f
7:50pm 6ft 11s 7s 13 16 mph 1020.6mb 55f 54f
6:50pm 6ft 10s 7s 13 16 mph 1021.4mb 55f 54f
5:50pm 6ft 10s 8s 11 13 mph 1021.8mb 55f 54f
4:50pm 6ft 10s 7s 9 11 mph 1022mb 55f 54f
3:50pm 6.5ft 11s 8s 9
1022.1mb 55f 53f
2:50pm 7ft 11s 8s 9 11 mph 1022.1mb 55f 54f
1:50pm 7ft 11s 8s 7 9 mph 1022.3mb 56f 54f
12:50pm 7.5ft 11s 8s 9 13 mph 1022.4mb 56f 54f
11:50am 8ft 11s 8s 9 11 mph 1022.5mb 56f 54f
10:50am 8ft 11s 8s 9 11 mph 1022.6mb 56f 54f
9:50am 7ft 12s 8s 7 11 mph 1023mb 56f 54f
8:50am 7ft 12s 7s 9 11 mph 1023.2mb 56f 54f
7:50am 8ft 12s 7s 16 18 mph 1023mb 56f 54f
6:50am 6ft 13s 6s 22 25 mph 1022.2mb 56f 54f
5:50am 6ft 13s 7s 18 20 mph 1023mb 56f 54f
4:50am 6.5ft 13s 8s 13 18 mph 1023.9mb 56f 54f
3:50am 6ft 13s 8s 7 9 mph 1024.7mb 56f 54f
2:50am 6.5ft 13s 7s 2
1025.2mb 56f 54f
1:50am 7ft 13s 8s 9 11 mph 1024.4mb 56f 54f
12:50am 6ft 13s 8s 11 16 mph 1023.8mb 56f 54f
Fri 11/27 11:50pm 6ft 13s 8s 9 13 mph 1023.8mb 56f 54f
10:50pm 6ft 14s 7s 9 13 mph 1023.8mb 56f 54f
9:50pm 6ft 11s 7s 9 11 mph 1024.2mb 56f 54f
8:50pm 6ft 14s 7s 7 9 mph 1024.4mb 56f 54f
7:50pm 6ft 11s 7s 7 9 mph 1025.1mb 55f 54f
6:50pm 6ft 11s 7s 9 13 mph 1025.4mb 55f 54f
5:50pm 6ft 9s 7s 7 9 mph 1025.5mb 55f 54f
4:50pm 5ft 11s 7s 9 11 mph 1025.2mb 55f 54f
3:50pm 5.5ft 9s 7s 13 16 mph 1024.7mb 55f 53f
2:50pm 5ft 11s 6s 16 18 mph 1024.2mb 55f 53f
1:50pm 5.5ft 10s 7s 18 22 mph 1023.6mb 55f 53f
12:50pm 5ft 9s 7s 13 18 mph 1024.4mb 55f 53f
11:50am 5ft 5s 6s 11 13 mph 1025.1mb 55f 53f
10:50am 4.5ft 15s 6s 9 13 mph 1025.3mb 55f 53f